Impacts TAF Board
For situational awareness. Not to be used for flight planning purposes.
IDs:

KTLH - Tallahassee Intl, FL, US

Issued at 1120 UTC 15 Oct 2018
Updated at 1508 UTC 15 Oct 2018
Potential Impact None Slight Moderate High
Time1453Z 15/16Z 15/17Z 15/18Z 15/19Z 15/20Z 15/21Z 15/22Z 15/23Z 16/00Z 16/01Z 16/02Z 16/03Z 16/04Z>>
Type OBS PRVL PRVL PRVL PRVL PRVL PRVL PRVL PRVL PRVL PRVL PRVL PRVL PRVL
VIS 10 >6 >6 >6 >6 >6 >6 >6 >6 >6 >6 >6 >6 >6
CIG -- -- -- -- -- -- -- -- -- -- -- -- -- --
Cover FEW SCT SCT SCT SCT SCT SCT SCT SCT SCT SCT SCT SCT SCT
FltCat VFR VFR VFR VFR VFR VFR VFR VFR VFR VFR VFR VFR VFR VFR
WX -- -- -- -- -- -- -- -- -- -- -- -- -- --
WDir 150 160 160 160 160 160 160 160 160 160 160 160 160 160
WSpd 5 6 6 6 6 6 6 6 6 6 6 6 6 6
WGst -- -- -- -- -- -- -- -- -- -- -- -- -- --
Raw TAF
KTLH 151120Z 1512/1612 VRB04KT P6SM SCT250
  FM151500 16006KT P6SM SCT050
  FM160900 00000KT 2SM BR SCT003


Raw METAR
KTLH 151453Z COR 15005KT 10SM FEW013 28/24 A3012 RMK SLP198 T02780239 50007 $
KTLH 151353Z COR 13007KT 10SM FEW020 25/23 A3012 RMK SLP199 T02500228 $
KTLH 151253Z COR 11006KT 10SM FEW020 23/22 A3011 RMK SLP195 T02280217 $

METAR Board
Radar Display
Forecast Discussion
For situational awareness. Not to be used for flight planning purposes.